createdAt,value
2022-12-02T00:00:11.103Z,0.35
2022-12-02T00:01:10.994Z,0.32
2022-12-02T00:02:10.930Z,0.35
2022-12-02T00:03:10.959Z,0.35
2022-12-02T00:04:10.871Z,0.30
2022-12-02T00:05:10.682Z,0.30
2022-12-02T00:06:10.613Z,0.32
2022-12-02T00:07:10.544Z,0.33
2022-12-02T00:08:10.508Z,0.30
2022-12-02T00:09:10.413Z,0.35
2022-12-02T00:10:10.331Z,0.27
2022-12-02T00:11:10.233Z,0.35
2022-12-02T00:12:10.165Z,0.33
2022-12-02T00:13:10.083Z,0.33
2022-12-02T00:14:10.005Z,0.32
2022-12-02T00:15:09.948Z,0.33
2022-12-02T00:16:09.939Z,0.33
2022-12-02T00:17:09.783Z,0.30
2022-12-02T00:18:09.697Z,0.33
2022-12-02T00:19:09.625Z,0.37
2022-12-02T00:20:09.555Z,0.32
2022-12-02T00:21:09.476Z,0.30
2022-12-02T00:22:09.386Z,0.37
2022-12-02T00:23:09.316Z,0.32
2022-12-02T00:24:09.243Z,0.35
2022-12-02T00:25:09.155Z,0.30
2022-12-02T00:26:09.076Z,0.33
2022-12-02T00:27:08.986Z,0.29
2022-12-02T00:28:08.913Z,0.27
2022-12-02T00:29:08.836Z,0.26
2022-12-02T00:30:08.776Z,0.30
2022-12-02T00:31:08.763Z,0.29
2022-12-02T00:32:08.668Z,0.25
2022-12-02T00:33:08.528Z,0.26
2022-12-02T00:34:08.451Z,0.29
2022-12-02T00:35:08.357Z,0.32
2022-12-02T00:36:08.304Z,0.26
2022-12-02T00:37:08.208Z,0.30
2022-12-02T00:38:08.233Z,0.27
2022-12-02T00:39:08.065Z,0.27
2022-12-02T00:40:07.982Z,0.29
2022-12-02T00:41:07.910Z,0.27
2022-12-02T00:42:07.861Z,0.29
2022-12-02T00:43:07.770Z,0.22
2022-12-02T00:44:07.713Z,0.17
2022-12-02T00:45:07.631Z,0.23
2022-12-02T00:46:07.601Z,0.20
2022-12-02T00:47:07.489Z,0.18
2022-12-02T00:48:07.415Z,0.23
2022-12-02T00:49:07.339Z,0.18
2022-12-02T00:50:07.260Z,0.18
2022-12-02T00:51:07.190Z,0.22
2022-12-02T00:52:07.134Z,0.20
2022-12-02T00:53:07.061Z,0.20
2022-12-02T00:54:06.980Z,0.11
2022-12-02T00:55:06.901Z,0.15
2022-12-02T00:56:06.840Z,0.17
2022-12-02T00:57:06.752Z,0.23
2022-12-02T00:58:06.688Z,0.20
2022-12-02T00:59:06.591Z,0.17
2022-12-02T01:00:06.557Z,0.20
2022-12-02T01:01:06.521Z,0.12
2022-12-02T01:02:06.424Z,0.08
2022-12-02T01:03:06.321Z,0.12
2022-12-02T01:04:06.248Z,0.14
2022-12-02T01:05:06.152Z,0.17
2022-12-02T01:06:06.093Z,0.12
2022-12-02T01:07:05.996Z,0.14
2022-12-02T01:08:05.999Z,0.11
2022-12-02T01:09:05.861Z,0.07
2022-12-02T01:10:05.775Z,0.07
2022-12-02T01:11:05.692Z,0.08
2022-12-02T01:12:05.626Z,0.07
2022-12-02T01:13:05.553Z,0.18
2022-12-02T01:14:05.484Z,0.09
2022-12-02T01:15:05.417Z,0.14
2022-12-02T01:16:05.403Z,0.08
2022-12-02T01:17:05.254Z,0.11
2022-12-02T01:18:05.205Z,0.05
2022-12-02T01:19:05.134Z,0.09
2022-12-02T01:20:05.057Z,0.09
2022-12-02T01:21:04.957Z,0.05
2022-12-02T01:22:04.876Z,0.09
2022-12-02T01:23:04.804Z,0.05
2022-12-02T01:24:04.748Z,0.05
2022-12-02T01:25:04.667Z,0.15
2022-12-02T01:26:04.576Z,0.04
2022-12-02T01:27:04.506Z,0.05
2022-12-02T01:28:04.434Z,0.05
2022-12-02T01:29:04.357Z,0.11
2022-12-02T01:30:04.286Z,0.05
2022-12-02T01:31:04.210Z,0.11
2022-12-02T01:32:04.210Z,0.08
2022-12-02T01:33:04.063Z,0.08
2022-12-02T01:34:03.977Z,0.08
2022-12-02T01:35:03.907Z,0.12
2022-12-02T01:36:03.831Z,0.15
2022-12-02T01:37:03.727Z,0.11
2022-12-02T01:38:03.636Z,0.11
2022-12-02T01:39:03.568Z,0.09
2022-12-02T01:40:03.512Z,0.07
2022-12-02T01:41:03.411Z,0.07
2022-12-02T01:42:03.340Z,0.09
2022-12-02T01:43:03.253Z,0.09
2022-12-02T01:44:03.159Z,0.09
2022-12-02T01:45:03.073Z,0.07
2022-12-02T01:46:03.058Z,0.07
2022-12-02T01:47:02.919Z,0.07
2022-12-02T01:48:02.833Z,0.08
2022-12-02T01:49:02.768Z,0.08
2022-12-02T01:50:02.684Z,0.07
2022-12-02T01:51:02.594Z,0.07
2022-12-02T01:52:02.491Z,0.11
2022-12-02T01:53:02.437Z,0.08
2022-12-02T01:54:02.346Z,0.07
2022-12-02T01:55:02.261Z,0.00
2022-12-02T01:56:02.191Z,0.02
2022-12-02T01:57:02.111Z,-0.01
2022-12-02T01:58:02.035Z,-0.03
2022-12-02T01:59:01.928Z,0.05
2022-12-02T02:00:01.867Z,0.00
2022-12-02T02:01:01.841Z,-0.01
2022-12-02T02:02:01.758Z,0.05
2022-12-02T02:03:01.621Z,-0.01
2022-12-02T02:04:01.532Z,-0.04
2022-12-02T02:05:01.441Z,-0.07
2022-12-02T02:06:01.361Z,-0.09
2022-12-02T02:07:01.288Z,-0.01
2022-12-02T02:08:01.253Z,-0.06
2022-12-02T02:09:01.124Z,-0.07
2022-12-02T02:10:01.033Z,-0.03
2022-12-02T02:11:00.982Z,-0.09
2022-12-02T02:12:00.894Z,-0.09
2022-12-02T02:13:00.814Z,-0.03
2022-12-02T02:14:00.743Z,-0.07
2022-12-02T02:15:00.663Z,-0.06
2022-12-02T02:16:00.585Z,-0.06
2022-12-02T02:17:00.635Z,-0.09
2022-12-02T02:18:04.854Z,-0.06
2022-12-02T02:19:00.359Z,-0.06
2022-12-02T02:20:00.267Z,-0.07
2022-12-02T02:21:00.197Z,-0.07
2022-12-02T02:22:00.123Z,-0.10
2022-12-02T02:23:00.047Z,-0.13
2022-12-02T02:23:59.954Z,-0.07
2022-12-02T02:24:59.913Z,-0.09
2022-12-02T02:25:59.822Z,-0.14
2022-12-02T02:26:59.727Z,-0.11
2022-12-02T02:27:59.676Z,-0.07
2022-12-02T02:28:59.579Z,-0.09
2022-12-02T02:29:59.496Z,-0.09
2022-12-02T02:30:59.458Z,-0.09
2022-12-02T02:31:59.335Z,-0.07
2022-12-02T02:32:59.278Z,-0.10
2022-12-02T02:33:59.181Z,-0.13
2022-12-02T02:34:59.120Z,-0.11
2022-12-02T02:35:59.026Z,-0.13
2022-12-02T02:36:58.965Z,-0.09
2022-12-02T02:37:58.909Z,-0.11
2022-12-02T02:38:58.813Z,-0.14
2022-12-02T02:39:58.737Z,-0.14
2022-12-02T02:40:58.672Z,-0.13
2022-12-02T02:41:58.597Z,-0.20
2022-12-02T02:42:58.536Z,-0.20
2022-12-02T02:43:58.440Z,-0.21
2022-12-02T02:44:58.358Z,-0.16
2022-12-02T02:45:58.344Z,-0.27
2022-12-02T02:46:58.208Z,-0.28
2022-12-02T02:47:58.142Z,-0.31
2022-12-02T02:48:58.048Z,-0.35
2022-12-02T02:49:57.979Z,-0.29
2022-12-02T02:50:57.911Z,-0.34
2022-12-02T02:51:57.826Z,-0.31
2022-12-02T02:52:57.770Z,-0.35
2022-12-02T02:53:57.673Z,-0.32
2022-12-02T02:54:57.599Z,-0.29
2022-12-02T02:55:57.553Z,-0.28
2022-12-02T02:56:57.443Z,-0.32
2022-12-02T02:57:57.369Z,-0.27
2022-12-02T02:58:57.303Z,-0.32
2022-12-02T02:59:57.220Z,-0.29
2022-12-02T03:00:57.181Z,-0.29
2022-12-02T03:01:57.157Z,-0.32
2022-12-02T03:02:57.047Z,-0.31
2022-12-02T03:03:56.921Z,-0.29
2022-12-02T03:04:56.847Z,-0.29
2022-12-02T03:05:56.767Z,-0.32
2022-12-02T03:06:56.702Z,-0.39
2022-12-02T03:07:56.696Z,-0.35
2022-12-02T03:08:56.561Z,-0.40
2022-12-02T03:09:56.471Z,-0.40
2022-12-02T03:10:56.403Z,-0.42
2022-12-02T03:11:56.343Z,-0.42
2022-12-02T03:12:56.253Z,-0.45
2022-12-02T03:13:56.191Z,-0.43
2022-12-02T03:14:56.103Z,-0.40
2022-12-02T03:15:56.023Z,-0.45
2022-12-02T03:16:55.980Z,-0.45
2022-12-02T03:17:55.884Z,-0.42
2022-12-02T03:18:55.803Z,-0.42
2022-12-02T03:19:55.746Z,-0.40
2022-12-02T03:20:55.676Z,-0.46
2022-12-02T03:21:55.593Z,-0.43
2022-12-02T03:22:55.514Z,-0.43
2022-12-02T03:23:55.451Z,-0.46
2022-12-02T03:24:55.398Z,-0.42
2022-12-02T03:25:55.319Z,-0.46
2022-12-02T03:26:55.240Z,-0.46
2022-12-02T03:27:55.145Z,-0.46
2022-12-02T03:28:55.087Z,-0.49
2022-12-02T03:29:55.035Z,-0.53
2022-12-02T03:30:54.977Z,-0.49
2022-12-02T03:31:54.847Z,-0.57
2022-12-02T03:32:54.766Z,-0.50
2022-12-02T03:33:54.707Z,-0.58
2022-12-02T03:34:54.642Z,-0.53
2022-12-02T03:35:54.544Z,-0.57
2022-12-02T03:36:54.476Z,-0.60
2022-12-02T03:37:54.409Z,-0.58
2022-12-02T03:38:54.343Z,-0.50
2022-12-02T03:39:54.253Z,-0.60
2022-12-02T03:40:54.211Z,-0.61
2022-12-02T03:41:54.129Z,-0.58
2022-12-02T03:42:54.076Z,-0.60
2022-12-02T03:43:53.996Z,-0.58
2022-12-02T03:44:53.983Z,-0.52
2022-12-02T03:45:53.881Z,-0.52
2022-12-02T03:46:53.808Z,-0.50
2022-12-02T03:47:53.709Z,-0.60
2022-12-02T03:48:53.655Z,-0.60
2022-12-02T03:49:53.578Z,-0.60
2022-12-02T03:50:53.538Z,-0.61
2022-12-02T03:51:53.450Z,-0.63
2022-12-02T03:52:53.441Z,-0.61
2022-12-02T03:53:53.287Z,-0.58
2022-12-02T03:54:55.332Z,-0.57
2022-12-02T03:55:53.151Z,-0.52
2022-12-02T03:56:53.089Z,-0.52
2022-12-02T03:57:52.999Z,-0.53
2022-12-02T03:58:52.960Z,-0.57
2022-12-02T03:59:52.869Z,-0.60
2022-12-02T04:00:52.798Z,-0.61
2022-12-02T04:01:52.829Z,-0.60
2022-12-02T04:02:52.718Z,-0.63
2022-12-02T04:03:52.614Z,-0.61
2022-12-02T04:04:52.878Z,-0.63
2022-12-02T04:05:52.452Z,-0.61
2022-12-02T04:06:52.404Z,-0.64
2022-12-02T04:07:52.380Z,-0.63
2022-12-02T04:08:52.250Z,-0.64
2022-12-02T04:09:52.203Z,-0.61
2022-12-02T04:10:52.133Z,-0.67
2022-12-02T04:11:52.052Z,-0.67
2022-12-02T04:12:52.003Z,-0.71
2022-12-02T04:13:51.933Z,-0.68
2022-12-02T04:14:51.986Z,-0.67
2022-12-02T04:15:51.811Z,-0.66
2022-12-02T04:16:51.723Z,-0.67
2022-12-02T04:17:51.675Z,-0.70
2022-12-02T04:18:51.611Z,-0.68
2022-12-02T04:19:51.532Z,-0.63
2022-12-02T04:20:51.475Z,-0.67
2022-12-02T04:21:51.414Z,-0.66
2022-12-02T04:22:51.358Z,-0.66
2022-12-02T04:23:51.284Z,-0.67
2022-12-02T04:24:51.509Z,-0.68
2022-12-02T04:25:51.145Z,-0.71
2022-12-02T04:26:51.083Z,-0.66
2022-12-02T04:27:51.014Z,-0.64
2022-12-02T04:28:50.963Z,-0.64
2022-12-02T04:29:50.874Z,-0.66
2022-12-02T04:30:50.871Z,-0.61
2022-12-02T04:31:50.754Z,-0.68
2022-12-02T04:32:50.697Z,-0.78
2022-12-02T04:33:50.627Z,-0.66
2022-12-02T04:34:50.752Z,-0.66
2022-12-02T04:35:50.466Z,-0.68
2022-12-02T04:36:50.415Z,-0.70
2022-12-02T04:37:50.338Z,-0.71
2022-12-02T04:38:50.265Z,-0.73
2022-12-02T04:39:50.204Z,-0.73
2022-12-02T04:40:50.127Z,-0.73
2022-12-02T04:41:50.055Z,-0.63
2022-12-02T04:42:49.997Z,-0.71
2022-12-02T04:43:49.917Z,-0.81
2022-12-02T04:44:50.304Z,-0.78
2022-12-02T04:45:49.766Z,-0.79
2022-12-02T04:46:49.782Z,-0.78
2022-12-02T04:47:49.640Z,-0.78
2022-12-02T04:48:49.578Z,-0.82
2022-12-02T04:49:49.497Z,-0.75
2022-12-02T04:50:49.459Z,-0.78
2022-12-02T04:51:49.378Z,-0.76
2022-12-02T04:52:49.308Z,-0.76
2022-12-02T04:53:49.235Z,-0.76
2022-12-02T04:54:49.611Z,-0.73
2022-12-02T04:55:49.116Z,-0.78
2022-12-02T04:56:49.057Z,-0.75
2022-12-02T04:57:48.979Z,-0.76
2022-12-02T04:58:48.906Z,-0.76
2022-12-02T04:59:48.848Z,-0.73
2022-12-02T05:00:48.799Z,-0.79
2022-12-02T05:01:48.719Z,-0.79
2022-12-02T05:02:48.666Z,-0.76
2022-12-02T05:03:48.618Z,-0.70
2022-12-02T05:04:48.509Z,-0.70
2022-12-02T05:05:48.430Z,-0.71
2022-12-02T05:06:48.371Z,-0.75
2022-12-02T05:07:48.344Z,-0.78
2022-12-02T05:08:48.227Z,-0.66
2022-12-02T05:09:48.143Z,-0.76
2022-12-02T05:10:48.073Z,-0.78
2022-12-02T05:11:48.018Z,-0.75
2022-12-02T05:12:47.944Z,-0.73
2022-12-02T05:13:47.852Z,-0.76
2022-12-02T05:14:47.783Z,-0.66
2022-12-02T05:15:47.752Z,-0.73
2022-12-02T05:16:47.643Z,-0.76
2022-12-02T05:17:47.541Z,-0.82
2022-12-02T05:18:47.499Z,-0.75
2022-12-02T05:19:47.411Z,-0.82
2022-12-02T05:20:47.341Z,-0.75
2022-12-02T05:21:47.277Z,-0.76
2022-12-02T05:22:47.214Z,-0.76
2022-12-02T05:23:47.248Z,-0.75
2022-12-02T05:24:47.052Z,-0.67
2022-12-02T05:25:46.986Z,-0.76
2022-12-02T05:26:46.916Z,-0.68
2022-12-02T05:27:46.850Z,-0.75
2022-12-02T05:28:46.774Z,-0.78
2022-12-02T05:29:46.683Z,-0.75
2022-12-02T05:30:46.629Z,-0.76
2022-12-02T05:31:46.657Z,-0.75
2022-12-02T05:32:46.492Z,-0.75
2022-12-02T05:33:46.395Z,-0.70
2022-12-02T05:34:46.313Z,-0.67
2022-12-02T05:35:46.244Z,-0.75
2022-12-02T05:36:46.168Z,-0.71
2022-12-02T05:37:46.106Z,-0.75
2022-12-02T05:38:46.108Z,-0.67
2022-12-02T05:39:45.968Z,-0.73
2022-12-02T05:40:45.906Z,-0.73
2022-12-02T05:41:45.825Z,-0.67
2022-12-02T05:42:45.922Z,-0.67
2022-12-02T05:43:45.695Z,-0.76
2022-12-02T05:44:45.617Z,-0.73
2022-12-02T05:45:45.545Z,-0.63
2022-12-02T05:46:45.595Z,-0.70
2022-12-02T05:47:45.406Z,-0.71
2022-12-02T05:48:45.336Z,-0.67
2022-12-02T05:49:45.284Z,-0.68
2022-12-02T05:50:45.205Z,-0.67
2022-12-02T05:51:48.376Z,-0.63
2022-12-02T05:52:45.057Z,-0.67
2022-12-02T05:53:44.989Z,-0.66
2022-12-02T05:54:44.940Z,-0.57
2022-12-02T05:55:44.838Z,-0.63
2022-12-02T05:56:44.769Z,-0.67
2022-12-02T05:57:44.699Z,-0.64
2022-12-02T05:58:44.619Z,-0.68
2022-12-02T05:59:44.561Z,-0.64
2022-12-02T06:00:44.499Z,-0.61
2022-12-02T06:01:44.543Z,-0.64
2022-12-02T06:02:44.439Z,-0.63
2022-12-02T06:03:44.269Z,-0.60
2022-12-02T06:04:44.213Z,-0.63
2022-12-02T06:05:44.148Z,-0.64
2022-12-02T06:06:44.059Z,-0.57
2022-12-02T06:07:44.029Z,-0.63
2022-12-02T06:08:43.949Z,-0.61
2022-12-02T06:09:43.873Z,-0.63
2022-12-02T06:10:43.807Z,-0.61
2022-12-02T06:11:43.732Z,-0.60
2022-12-02T06:12:43.657Z,-0.53
2022-12-02T06:13:43.591Z,-0.68
2022-12-02T06:14:43.540Z,-0.64
2022-12-02T06:15:43.462Z,-0.60
2022-12-02T06:16:43.409Z,-0.55
2022-12-02T06:17:43.346Z,-0.58
2022-12-02T06:18:43.239Z,-0.60
2022-12-02T06:19:43.161Z,-0.60
2022-12-02T06:20:43.108Z,-0.52
2022-12-02T06:21:43.030Z,-0.53
2022-12-02T06:22:42.941Z,-0.55
2022-12-02T06:23:42.890Z,-0.61
2022-12-02T06:24:42.812Z,-0.58
2022-12-02T06:25:42.768Z,-0.60
2022-12-02T06:26:42.671Z,-0.47
2022-12-02T06:27:42.599Z,-0.47
2022-12-02T06:28:42.523Z,-0.52
2022-12-02T06:29:42.462Z,-0.53
2022-12-02T06:30:42.401Z,-0.47
2022-12-02T06:31:42.379Z,-0.49
2022-12-02T06:32:42.270Z,-0.47
2022-12-02T06:33:42.157Z,-0.45
2022-12-02T06:34:42.090Z,-0.49
2022-12-02T06:35:42.035Z,-0.50
2022-12-02T06:36:41.970Z,-0.42
2022-12-02T06:37:41.866Z,-0.43
2022-12-02T06:38:44.149Z,-0.42
2022-12-02T06:39:58.156Z,-0.39
2022-12-02T06:40:42.664Z,-0.38
2022-12-02T06:41:41.576Z,-0.42
2022-12-02T06:42:41.493Z,-0.43
2022-12-02T06:43:41.433Z,-0.42
2022-12-02T06:44:41.364Z,-0.38
2022-12-02T06:45:41.320Z,-0.40
2022-12-02T06:46:41.250Z,-0.38
2022-12-02T06:47:41.158Z,-0.38
2022-12-02T06:48:41.105Z,-0.38
2022-12-02T06:49:41.051Z,-0.25
2022-12-02T06:50:42.900Z,-0.35
2022-12-02T06:51:40.907Z,-0.34
2022-12-02T06:52:40.834Z,-0.35
2022-12-02T06:53:40.756Z,-0.35
2022-12-02T06:54:40.687Z,-0.25
2022-12-02T06:55:40.620Z,-0.27
2022-12-02T06:56:40.573Z,-0.31
2022-12-02T06:57:40.485Z,-0.29
2022-12-02T06:58:40.411Z,-0.29
2022-12-02T06:59:40.336Z,-0.31
2022-12-02T07:00:40.375Z,-0.31
2022-12-02T07:01:40.199Z,-0.27
2022-12-02T07:02:40.153Z,-0.31
2022-12-02T07:03:40.051Z,-0.31
2022-12-02T07:04:39.968Z,-0.32
2022-12-02T07:05:39.891Z,-0.31
2022-12-02T07:06:39.822Z,-0.32
2022-12-02T07:07:39.842Z,-0.28
2022-12-02T07:08:39.713Z,-0.28
2022-12-02T07:09:39.636Z,-0.29
2022-12-02T07:10:39.567Z,-0.39
2022-12-02T07:11:39.513Z,-0.32
2022-12-02T07:12:39.476Z,-0.28
2022-12-02T07:13:39.359Z,-0.32
2022-12-02T07:14:39.301Z,-0.32
2022-12-02T07:15:39.220Z,-0.32
2022-12-02T07:16:39.171Z,-0.34
2022-12-02T07:17:39.083Z,-0.31
2022-12-02T07:18:39.075Z,-0.31
2022-12-02T07:19:38.964Z,-0.38
2022-12-02T07:20:38.869Z,-0.34
2022-12-02T07:21:38.780Z,-0.38
2022-12-02T07:22:38.736Z,-0.34
2022-12-02T07:23:38.641Z,-0.34
2022-12-02T07:24:38.538Z,-0.29
2022-12-02T07:25:38.558Z,-0.31
2022-12-02T07:26:38.392Z,-0.38
2022-12-02T07:27:38.320Z,-0.38
2022-12-02T07:28:38.271Z,-0.39
2022-12-02T07:29:38.172Z,-0.34
2022-12-02T07:30:38.149Z,-0.35
2022-12-02T07:31:38.031Z,-0.34
2022-12-02T07:32:37.941Z,-0.38
2022-12-02T07:33:37.880Z,-0.35
2022-12-02T07:34:37.823Z,-0.40
2022-12-02T07:35:37.732Z,-0.39
2022-12-02T07:36:37.662Z,-0.38
2022-12-02T07:37:37.593Z,-0.34
2022-12-02T07:39:04.808Z,-0.38
2022-12-02T07:39:38.454Z,-0.40
2022-12-02T07:40:37.367Z,-0.42
2022-12-02T07:41:37.751Z,-0.42
2022-12-02T07:42:37.223Z,-0.45
2022-12-02T07:43:37.165Z,-0.39
2022-12-02T07:44:37.103Z,-0.39
2022-12-02T07:45:37.005Z,-0.39
2022-12-02T07:46:37.037Z,-0.42
2022-12-02T07:47:36.872Z,-0.39
2022-12-02T07:48:36.804Z,-0.45
2022-12-02T07:49:36.724Z,-0.39
2022-12-02T07:50:36.654Z,-0.45
2022-12-02T07:51:36.572Z,-0.38
2022-12-02T07:52:36.501Z,-0.40
2022-12-02T07:53:36.428Z,-0.40
2022-12-02T07:54:36.343Z,-0.38
2022-12-02T07:55:36.285Z,-0.39
2022-12-02T07:56:36.218Z,-0.39
2022-12-02T07:57:36.154Z,-0.39
2022-12-02T07:59:09.653Z,-0.42
2022-12-02T07:59:37.018Z,-0.40
2022-12-02T08:00:35.977Z,-0.38
2022-12-02T08:01:35.958Z,-0.43
2022-12-02T08:02:35.820Z,-0.42
2022-12-02T08:03:35.747Z,-0.40
2022-12-02T08:04:35.712Z,-0.39
2022-12-02T08:05:35.617Z,-0.47
2022-12-02T08:06:39.394Z,-0.40
2022-12-02T08:07:35.511Z,-0.42
2022-12-02T08:08:35.423Z,-0.45
2022-12-02T08:09:35.353Z,-0.42
2022-12-02T08:10:35.295Z,-0.42
2022-12-02T08:11:35.243Z,-0.42
2022-12-02T08:12:35.148Z,-0.45
2022-12-02T08:13:35.089Z,-0.43
2022-12-02T08:14:35.018Z,-0.42
2022-12-02T08:15:34.960Z,-0.40
2022-12-02T08:16:34.980Z,-0.40
2022-12-02T08:17:34.819Z,-0.39
2022-12-02T08:18:34.759Z,-0.40
2022-12-02T08:19:34.699Z,-0.29
2022-12-02T08:20:34.621Z,-0.34
2022-12-02T08:21:34.569Z,-0.29
2022-12-02T08:22:34.489Z,-0.28
2022-12-02T08:23:34.419Z,-0.32
2022-12-02T08:24:34.343Z,-0.27
2022-12-02T08:25:34.270Z,-0.28
2022-12-02T08:26:34.211Z,-0.27
2022-12-02T08:27:34.161Z,-0.25
2022-12-02T08:28:34.066Z,-0.25
2022-12-02T08:29:34.000Z,-0.21
2022-12-02T08:30:33.963Z,-0.21
2022-12-02T08:31:33.864Z,-0.22
2022-12-02T08:32:33.790Z,-0.25
2022-12-02T08:33:33.745Z,-0.22
2022-12-02T08:34:33.661Z,-0.25
2022-12-02T08:35:33.579Z,-0.27
2022-12-02T08:36:33.511Z,-0.20
2022-12-02T08:37:33.448Z,-0.21
2022-12-02T08:38:33.372Z,-0.22
2022-12-02T08:39:33.295Z,-0.22
2022-12-02T08:40:33.214Z,-0.21
2022-12-02T08:41:33.141Z,-0.21
2022-12-02T08:42:33.081Z,-0.21
2022-12-02T08:43:33.013Z,-0.25
2022-12-02T08:44:32.939Z,-0.25
2022-12-02T08:45:32.865Z,-0.21
2022-12-02T08:46:32.832Z,-0.22
2022-12-02T08:47:32.732Z,-0.24
2022-12-02T08:48:32.644Z,-0.20
2022-12-02T08:49:32.618Z,-0.17
2022-12-02T08:50:32.513Z,-0.17
2022-12-02T08:51:32.466Z,-0.24
2022-12-02T08:52:32.391Z,-0.17
2022-12-02T08:53:32.358Z,-0.24
2022-12-02T08:54:32.275Z,-0.21
2022-12-02T08:55:32.204Z,-0.27
2022-12-02T08:56:32.147Z,-0.16
2022-12-02T08:57:32.088Z,-0.22
2022-12-02T08:58:32.016Z,-0.25
2022-12-02T08:59:31.947Z,-0.27
2022-12-02T09:00:37.177Z,-0.24
2022-12-02T09:01:32.917Z,-0.21
2022-12-02T09:02:31.818Z,-0.20
2022-12-02T09:03:31.680Z,-0.20
2022-12-02T09:04:31.597Z,-0.20
2022-12-02T09:05:31.542Z,-0.22
2022-12-02T09:06:35.857Z,-0.28
2022-12-02T09:07:32.436Z,-0.25
2022-12-02T09:08:31.367Z,-0.25
2022-12-02T09:09:31.262Z,-0.27
2022-12-02T09:10:31.224Z,-0.31
2022-12-02T09:11:31.102Z,-0.31
2022-12-02T09:12:31.026Z,-0.29
2022-12-02T09:13:30.967Z,-0.27
2022-12-02T09:14:30.887Z,-0.27
2022-12-02T09:15:31.225Z,-0.27
2022-12-02T09:16:30.768Z,-0.27
2022-12-02T09:17:30.703Z,-0.25
2022-12-02T09:18:30.621Z,-0.25
2022-12-02T09:19:30.547Z,-0.20
2022-12-02T09:20:30.477Z,-0.28
2022-12-02T09:21:30.410Z,-0.20
2022-12-02T09:22:30.322Z,-0.27
2022-12-02T09:23:30.259Z,-0.22
2022-12-02T09:24:30.205Z,-0.29
2022-12-02T09:25:30.129Z,-0.25
2022-12-02T09:26:30.069Z,-0.25
2022-12-02T09:27:29.983Z,-0.29
2022-12-02T09:28:29.939Z,-0.34
2022-12-02T09:29:29.859Z,-0.31
2022-12-02T09:30:29.771Z,-0.32
2022-12-02T09:31:29.785Z,-0.24
2022-12-02T09:32:29.670Z,-0.31
2022-12-02T09:33:33.695Z,-0.32
2022-12-02T09:34:29.494Z,-0.32
2022-12-02T09:35:29.431Z,-0.29
2022-12-02T09:36:29.385Z,-0.29
2022-12-02T09:37:29.324Z,-0.31
2022-12-02T09:38:29.249Z,-0.34
2022-12-02T09:39:30.472Z,-0.35
2022-12-02T09:40:29.086Z,-0.29
2022-12-02T09:41:29.012Z,-0.32
2022-12-02T09:42:28.986Z,-0.31
2022-12-02T09:43:28.888Z,-0.38
2022-12-02T09:44:28.794Z,-0.38
2022-12-02T09:45:28.775Z,-0.34
2022-12-02T09:46:28.772Z,-0.34
2022-12-02T09:47:28.598Z,-0.28
2022-12-02T09:48:28.521Z,-0.28
2022-12-02T09:49:28.463Z,-0.28
2022-12-02T09:50:28.383Z,-0.29
2022-12-02T09:51:28.318Z,-0.24
2022-12-02T09:52:28.264Z,-0.21
2022-12-02T09:53:28.186Z,-0.21
2022-12-02T09:54:28.097Z,-0.24
2022-12-02T09:55:28.027Z,-0.25
2022-12-02T09:56:27.965Z,-0.24
2022-12-02T09:57:27.891Z,-0.16
2022-12-02T09:58:27.825Z,-0.25
2022-12-02T09:59:27.748Z,-0.21
2022-12-02T10:00:27.677Z,-0.25
2022-12-02T10:01:27.642Z,-0.25
2022-12-02T10:02:27.573Z,-0.27
2022-12-02T10:03:27.536Z,-0.22
2022-12-02T10:04:27.415Z,-0.25
2022-12-02T10:05:27.354Z,-0.27
2022-12-02T10:06:27.295Z,-0.28
2022-12-02T10:07:27.240Z,-0.29
2022-12-02T10:08:27.173Z,-0.29
2022-12-02T10:09:27.067Z,-0.24
2022-12-02T10:10:27.016Z,-0.27
2022-12-02T10:11:26.920Z,-0.25
2022-12-02T10:12:26.848Z,-0.28
2022-12-02T10:13:26.777Z,-0.29
2022-12-02T10:14:26.719Z,-0.27
2022-12-02T10:15:26.644Z,-0.29
2022-12-02T10:16:26.661Z,-0.24
2022-12-02T10:17:26.489Z,-0.25
2022-12-02T10:18:26.408Z,-0.27
2022-12-02T10:19:26.347Z,-0.22
2022-12-02T10:20:26.250Z,-0.29
2022-12-02T10:21:26.167Z,-0.20
2022-12-02T10:22:26.118Z,-0.27
2022-12-02T10:23:26.050Z,-0.24
2022-12-02T10:24:25.970Z,-0.24
2022-12-02T10:25:25.886Z,-0.27
2022-12-02T10:26:25.818Z,-0.20
2022-12-02T10:27:25.739Z,-0.27
2022-12-02T10:28:25.659Z,-0.22
2022-12-02T10:29:25.612Z,-0.24
2022-12-02T10:30:25.519Z,-0.21
2022-12-02T10:31:25.495Z,-0.24
2022-12-02T10:32:25.379Z,-0.16
2022-12-02T10:33:25.302Z,-0.21
2022-12-02T10:34:25.244Z,-0.17
2022-12-02T10:35:25.160Z,-0.20
2022-12-02T10:36:25.081Z,-0.14
2022-12-02T10:37:25.001Z,-0.16
2022-12-02T10:38:24.944Z,-0.09
2022-12-02T10:39:24.841Z,-0.13
2022-12-02T10:40:24.784Z,-0.17
2022-12-02T10:41:24.710Z,-0.21
2022-12-02T10:42:24.637Z,-0.11
2022-12-02T10:43:24.541Z,-0.09
2022-12-02T10:44:24.465Z,-0.09
2022-12-02T10:45:24.396Z,-0.07
2022-12-02T10:46:24.366Z,0.00
2022-12-02T10:47:26.660Z,-0.01
2022-12-02T10:48:24.161Z,-0.03
2022-12-02T10:49:24.072Z,-0.03
2022-12-02T10:50:24.045Z,-0.03
2022-12-02T10:51:23.997Z,-0.01
2022-12-02T10:52:23.862Z,0.05
2022-12-02T10:53:23.785Z,0.05
2022-12-02T10:54:23.701Z,0.02
2022-12-02T10:55:23.633Z,0.07
2022-12-02T10:56:23.579Z,0.15
2022-12-02T10:57:23.493Z,0.08
2022-12-02T10:58:23.417Z,0.11
2022-12-02T10:59:23.346Z,0.02
2022-12-02T11:00:23.270Z,0.07
2022-12-02T11:01:23.325Z,0.05
2022-12-02T11:02:23.198Z,0.02
2022-12-02T11:03:23.035Z,0.04
2022-12-02T11:04:22.986Z,0.04
2022-12-02T11:05:22.893Z,0.05
2022-12-02T11:06:22.836Z,0.02
2022-12-02T11:07:22.835Z,0.05
2022-12-02T11:08:22.770Z,0.02
2022-12-02T11:09:39.566Z,0.02
2022-12-02T11:10:23.546Z,0.00
2022-12-02T11:11:22.476Z,-0.07
2022-12-02T11:12:22.407Z,-0.03
2022-12-02T11:13:22.318Z,-0.04
2022-12-02T11:14:22.266Z,0.00
2022-12-02T11:15:22.179Z,0.00
2022-12-02T11:16:22.170Z,0.07
2022-12-02T11:17:22.063Z,0.02
2022-12-02T11:18:21.969Z,0.09
2022-12-02T11:19:21.902Z,0.04
2022-12-02T11:20:21.820Z,0.02
2022-12-02T11:21:21.759Z,0.04
2022-12-02T11:22:21.679Z,0.04
2022-12-02T11:23:21.598Z,0.04
2022-12-02T11:24:21.542Z,0.04
2022-12-02T11:25:21.458Z,0.07
2022-12-02T11:26:21.379Z,0.07
2022-12-02T11:27:21.311Z,0.09
2022-12-02T11:28:21.259Z,0.05
2022-12-02T11:29:21.159Z,0.04
2022-12-02T11:30:21.099Z,0.05
2022-12-02T11:31:21.101Z,0.07
2022-12-02T11:32:20.941Z,0.05
2022-12-02T11:33:20.861Z,0.07
2022-12-02T11:34:20.808Z,-0.01
2022-12-02T11:35:21.137Z,-0.03
2022-12-02T11:36:20.650Z,-0.06
2022-12-02T11:37:20.562Z,-0.04
2022-12-02T11:38:20.580Z,-0.03
2022-12-02T11:39:20.439Z,-0.07
2022-12-02T11:40:20.350Z,-0.06
2022-12-02T11:41:20.265Z,-0.06
2022-12-02T11:42:20.233Z,-0.06
2022-12-02T11:43:20.113Z,0.04
2022-12-02T11:44:20.031Z,-0.07
2022-12-02T11:45:19.962Z,-0.04
2022-12-02T11:46:19.947Z,0.00
2022-12-02T11:47:19.832Z,-0.03
2022-12-02T11:48:19.743Z,-0.04
2022-12-02T11:49:19.660Z,0.00
2022-12-02T11:50:19.604Z,-0.03
2022-12-02T11:51:19.513Z,0.02
2022-12-02T11:52:19.435Z,0.02
2022-12-02T11:53:19.368Z,0.02
2022-12-02T11:54:19.285Z,0.02
2022-12-02T11:55:19.228Z,-0.01
2022-12-02T11:56:19.124Z,-0.01
2022-12-02T11:57:19.042Z,0.04
2022-12-02T11:58:18.974Z,-0.03
2022-12-02T11:59:18.904Z,-0.06
2022-12-02T12:00:18.818Z,-0.04
2022-12-02T12:01:18.752Z,-0.04
2022-12-02T12:02:18.765Z,-0.01
2022-12-02T12:03:18.693Z,-0.09
2022-12-02T12:04:18.586Z,-0.07
2022-12-02T12:05:18.435Z,-0.04
2022-12-02T12:06:18.385Z,0.00
2022-12-02T12:07:18.295Z,-0.01
2022-12-02T12:08:18.277Z,-0.06
2022-12-02T12:09:18.126Z,-0.06
2022-12-02T12:10:18.057Z,-0.06
2022-12-02T12:11:17.986Z,-0.03
2022-12-02T12:12:17.917Z,-0.13
2022-12-02T12:13:17.836Z,-0.11
2022-12-02T12:14:17.775Z,-0.14
2022-12-02T12:15:17.676Z,-0.07
2022-12-02T12:16:17.708Z,-0.09
2022-12-02T12:17:17.538Z,-0.07
2022-12-02T12:18:17.566Z,-0.06
2022-12-02T12:19:17.380Z,-0.07
2022-12-02T12:20:17.308Z,-0.03
2022-12-02T12:21:17.228Z,-0.09
2022-12-02T12:22:17.149Z,-0.09
2022-12-02T12:23:17.059Z,-0.06
2022-12-02T12:24:16.998Z,-0.14
2022-12-02T12:25:22.123Z,-0.01
2022-12-02T12:26:17.868Z,-0.07
2022-12-02T12:27:16.775Z,-0.06
2022-12-02T12:28:16.680Z,-0.01
2022-12-02T12:29:16.603Z,-0.01
2022-12-02T12:30:16.544Z,-0.03
2022-12-02T12:31:17.033Z,-0.04
2022-12-02T12:32:16.515Z,-0.03
2022-12-02T12:33:16.300Z,-0.06
2022-12-02T12:34:16.251Z,-0.03
2022-12-02T12:35:16.141Z,-0.09
2022-12-02T12:36:16.070Z,0.00
2022-12-02T12:37:16.004Z,-0.04
2022-12-02T12:38:15.911Z,-0.04
2022-12-02T12:39:15.837Z,-0.04
2022-12-02T12:40:15.751Z,-0.06
2022-12-02T12:41:25.812Z,-0.01
2022-12-02T12:42:16.601Z,-0.04
2022-12-02T12:43:15.502Z,-0.04
2022-12-02T12:44:15.443Z,-0.09
2022-12-02T12:45:15.372Z,-0.10
2022-12-02T12:46:15.337Z,-0.14
2022-12-02T12:47:15.251Z,-0.13
2022-12-02T12:48:15.168Z,-0.14
2022-12-02T12:49:15.131Z,-0.13
2022-12-02T12:50:15.023Z,-0.14
2022-12-02T12:51:14.915Z,-0.10
2022-12-02T12:52:14.843Z,-0.17
2022-12-02T12:53:14.774Z,-0.13
2022-12-02T12:54:14.703Z,-0.07
2022-12-02T12:55:14.597Z,-0.06
2022-12-02T12:56:14.516Z,0.02
2022-12-02T12:57:14.464Z,-0.03